sensor_id;sensor_type;location;lat;lon;timestamp;pressure;altitude;pressure_sealevel;temperature
30001;BMP280;16845;48.670;9.000;2023-04-26T01:20:30;95540.28;;;6.06
30001;BMP280;16845;48.670;9.000;2023-04-26T01:22:58;95532.94;;;5.94
30001;BMP280;16845;48.670;9.000;2023-04-26T01:25:25;95535.44;;;5.94
30001;BMP280;16845;48.670;9.000;2023-04-26T01:27:51;95543.06;;;5.82
30001;BMP280;16845;48.670;9.000;2023-04-26T01:30:18;95541.38;;;5.82
30001;BMP280;16845;48.670;9.000;2023-04-26T01:32:44;95542.31;;;5.69
30001;BMP280;16845;48.670;9.000;2023-04-26T01:35:11;95537.38;;;5.66
30001;BMP280;16845;48.670;9.000;2023-04-26T01:37:37;95544.75;;;5.74
30001;BMP280;16845;48.670;9.000;2023-04-26T01:40:06;95543.16;;;5.70
30001;BMP280;16845;48.670;9.000;2023-04-26T01:42:33;95544.00;;;5.69
30001;BMP280;16845;48.670;9.000;2023-04-26T01:45:00;95553.00;;;5.82
30001;BMP280;16845;48.670;9.000;2023-04-26T01:47:26;95540.56;;;5.80
30001;BMP280;16845;48.670;9.000;2023-04-26T01:49:53;95540.63;;;5.73
30001;BMP280;16845;48.670;9.000;2023-04-26T01:52:20;95535.69;;;5.68
30001;BMP280;16845;48.670;9.000;2023-04-26T01:54:46;95531.69;;;5.55
30001;BMP280;16845;48.670;9.000;2023-04-26T01:57:14;95528.47;;;5.46
30001;BMP280;16845;48.670;9.000;2023-04-26T01:59:40;95528.44;;;5.49
30001;BMP280;16845;48.670;9.000;2023-04-26T02:02:07;95531.88;;;5.33
30001;BMP280;16845;48.670;9.000;2023-04-26T02:04:34;95529.41;;;5.33
30001;BMP280;16845;48.670;9.000;2023-04-26T02:07:01;95527.75;;;5.35
30001;BMP280;16845;48.670;9.000;2023-04-26T02:09:27;95526.97;;;5.27
30001;BMP280;16845;48.670;9.000;2023-04-26T02:11:53;95525.28;;;5.29
30001;BMP280;16845;48.670;9.000;2023-04-26T02:14:21;95526.19;;;5.23
30001;BMP280;16845;48.670;9.000;2023-04-26T02:16:48;95526.19;;;5.25
30001;BMP280;16845;48.670;9.000;2023-04-26T02:19:14;95530.38;;;5.17
30001;BMP280;16845;48.670;9.000;2023-04-26T02:21:51;95533.72;;;5.16
30001;BMP280;16845;48.670;9.000;2023-04-26T02:24:18;95537.09;;;5.06
30001;BMP280;16845;48.670;9.000;2023-04-26T02:26:44;95537.16;;;5.00
30001;BMP280;16845;48.670;9.000;2023-04-26T02:29:11;95544.66;;;4.95
30001;BMP280;16845;48.670;9.000;2023-04-26T02:31:39;95543.00;;;4.91
30001;BMP280;16845;48.670;9.000;2023-04-26T02:34:05;95536.31;;;5.02
30001;BMP280;16845;48.670;9.000;2023-04-26T02:36:32;95547.94;;;5.00
30001;BMP280;16845;48.670;9.000;2023-04-26T02:38:58;95550.41;;;5.00
30001;BMP280;16845;48.670;9.000;2023-04-26T02:41:25;95553.75;;;5.01
30001;BMP280;16845;48.670;9.000;2023-04-26T02:43:51;95542.06;;;5.06
30001;BMP280;16845;48.670;9.000;2023-04-26T02:46:18;95542.03;;;5.12
30001;BMP280;16845;48.670;9.000;2023-04-26T02:48:46;95549.47;;;5.13
30001;BMP280;16845;48.670;9.000;2023-04-26T02:51:12;95536.16;;;5.20
30001;BMP280;16845;48.670;9.000;2023-04-26T02:53:39;95544.50;;;5.15
30001;BMP280;16845;48.670;9.000;2023-04-26T02:56:05;95537.00;;;5.18
30001;BMP280;16845;48.670;9.000;2023-04-26T02:58:32;95549.44;;;5.19
30001;BMP280;16845;48.670;9.000;2023-04-26T03:00:59;95542.88;;;5.08
30001;BMP280;16845;48.670;9.000;2023-04-26T03:03:27;95547.78;;;5.17
30001;BMP280;16845;48.670;9.000;2023-04-26T03:05:55;95542.88;;;5.09
30001;BMP280;16845;48.670;9.000;2023-04-26T03:08:21;95543.59;;;5.25
30001;BMP280;16845;48.670;9.000;2023-04-26T03:10:48;95542.06;;;5.04
30001;BMP280;16845;48.670;9.000;2023-04-26T03:13:14;95553.78;;;4.95
30001;BMP280;16845;48.670;9.000;2023-04-26T03:15:43;95547.97;;;4.96
30001;BMP280;16845;48.670;9.000;2023-04-26T03:18:09;95547.13;;;4.97
30001;BMP280;16845;48.670;9.000;2023-04-26T03:20:36;95551.28;;;4.96
30001;BMP280;16845;48.670;9.000;2023-04-26T03:23:04;95538.84;;;4.93
30001;BMP280;16845;48.670;9.000;2023-04-26T03:25:31;95542.16;;;4.97
30001;BMP280;16845;48.670;9.000;2023-04-26T03:27:58;95540.50;;;4.96
30001;BMP280;16845;48.670;9.000;2023-04-26T03:30:24;95538.91;;;4.87
30001;BMP280;16845;48.670;9.000;2023-04-26T03:32:51;95538.09;;;4.82
30001;BMP280;16845;48.670;9.000;2023-04-26T03:35:18;95538.16;;;4.75
30001;BMP280;16845;48.670;9.000;2023-04-26T03:37:44;95535.69;;;4.75
30001;BMP280;16845;48.670;9.000;2023-04-26T03:40:12;95529.97;;;4.62
30001;BMP280;16845;48.670;9.000;2023-04-26T03:42:39;95534.22;;;4.47
30001;BMP280;16845;48.670;9.000;2023-04-26T03:45:06;95533.47;;;4.38
30001;BMP280;16845;48.670;9.000;2023-04-26T03:47:33;95532.69;;;4.24
30001;BMP280;16845;48.670;9.000;2023-04-26T03:50:00;95539.38;;;4.16
30001;BMP280;16845;48.670;9.000;2023-04-26T03:52:26;95535.25;;;4.09
30001;BMP280;16845;48.670;9.000;2023-04-26T03:54:52;95541.06;;;4.09
30001;BMP280;16845;48.670;9.000;2023-04-26T03:57:20;95537.78;;;3.95
30001;BMP280;16845;48.670;9.000;2023-04-26T03:59:47;95537.00;;;3.84
30001;BMP280;16845;48.670;9.000;2023-04-26T04:02:13;95538.66;;;3.84
30001;BMP280;16845;48.670;9.000;2023-04-26T04:04:40;95542.81;;;3.77
30001;BMP280;16845;48.670;9.000;2023-04-26T04:07:07;95546.97;;;3.75
30001;BMP280;16845;48.670;9.000;2023-04-26T04:09:33;95545.31;;;3.76
30001;BMP280;16845;48.670;9.000;2023-04-26T04:12:00;95540.34;;;3.73
30001;BMP280;16845;48.670;9.000;2023-04-26T04:14:28;95541.16;;;3.82
30001;BMP280;16845;48.670;9.000;2023-04-26T04:16:54;95540.31;;;3.79
30001;BMP280;16845;48.670;9.000;2023-04-26T04:19:21;95537.81;;;3.88
30001;BMP280;16845;48.670;9.000;2023-04-26T04:21:47;95546.94;;;3.83
30001;BMP280;16845;48.670;9.000;2023-04-26T04:24:14;95542.81;;;3.86
30001;BMP280;16845;48.670;9.000;2023-04-26T04:26:40;95545.25;;;3.88
30001;BMP280;16845;48.670;9.000;2023-04-26T04:29:07;95543.59;;;3.90
30001;BMP280;16845;48.670;9.000;2023-04-26T04:31:35;95552.69;;;3.92
30001;BMP280;16845;48.670;9.000;2023-04-26T04:34:01;95553.50;;;3.99
30001;BMP280;16845;48.670;9.000;2023-04-26T04:36:28;95559.25;;;4.10
30001;BMP280;16845;48.670;9.000;2023-04-26T04:38:54;95551.78;;;4.16
30001;BMP280;16845;48.670;9.000;2023-04-26T04:41:20;95558.34;;;4.27
30001;BMP280;16845;48.670;9.000;2023-04-26T04:43:47;95555.00;;;4.34
30001;BMP280;16845;48.670;9.000;2023-04-26T04:46:13;95556.59;;;4.44
30001;BMP280;16845;48.670;9.000;2023-04-26T04:48:41;95562.38;;;4.51
30001;BMP280;16845;48.670;9.000;2023-04-26T04:51:08;95555.72;;;4.53
30001;BMP280;16845;48.670;9.000;2023-04-26T04:53:34;95564.78;;;4.56
30001;BMP280;16845;48.670;9.000;2023-04-26T04:56:01;95559.75;;;4.70
30001;BMP280;16845;48.670;9.000;2023-04-26T04:58:27;95561.34;;;4.80
30001;BMP280;16845;48.670;9.000;2023-04-26T05:00:54;95567.06;;;4.88
30001;BMP280;16845;48.670;9.000;2023-04-26T05:03:20;95564.56;;;4.95
30001;BMP280;16845;48.670;9.000;2023-04-26T05:05:48;95564.50;;;5.01
30001;BMP280;16845;48.670;9.000;2023-04-26T05:08:14;95562.78;;;5.09
30001;BMP280;16845;48.670;9.000;2023-04-26T05:10:41;95571.09;;;5.04
30001;BMP280;16845;48.670;9.000;2023-04-26T05:13:07;95570.22;;;5.14
30001;BMP280;16845;48.670;9.000;2023-04-26T05:15:34;95566.94;;;5.06
30001;BMP280;16845;48.670;9.000;2023-04-26T05:18:00;95571.94;;;5.03
30001;BMP280;16845;48.670;9.000;2023-04-26T05:20:27;95575.25;;;5.05
30001;BMP280;16845;48.670;9.000;2023-04-26T05:22:54;95586.78;;;5.15
30001;BMP280;16845;48.670;9.000;2023-04-26T05:25:21;95590.78;;;5.32
30001;BMP280;16845;48.670;9.000;2023-04-26T05:27:48;95589.09;;;5.34
30001;BMP280;16845;48.670;9.000;2023-04-26T05:30:14;95589.84;;;5.44
30001;BMP280;16845;48.670;9.000;2023-04-26T05:32:41;95588.16;;;5.49
30001;BMP280;16845;48.670;9.000;2023-04-26T05:35:08;95598.78;;;5.64
30001;BMP280;16845;48.670;9.000;2023-04-26T05:37:34;95602.91;;;5.67
30001;BMP280;16845;48.670;9.000;2023-04-26T05:40:03;95603.69;;;5.72
30001;BMP280;16845;48.670;9.000;2023-04-26T05:42:29;95594.44;;;5.86
30001;BMP280;16845;48.670;9.000;2023-04-26T05:44:56;95599.38;;;5.89
30001;BMP280;16845;48.670;9.000;2023-04-26T05:47:23;95601.78;;;5.98
30001;BMP280;16845;48.670;9.000;2023-04-26T05:49:49;95600.78;;;6.15
30001;BMP280;16845;48.670;9.000;2023-04-26T05:52:16;95605.75;;;6.15
30001;BMP280;16845;48.670;9.000;2023-04-26T05:54:42;95597.28;;;6.30
30001;BMP280;16845;48.670;9.000;2023-04-26T05:57:10;95594.69;;;6.36
30001;BMP280;16845;48.670;9.000;2023-04-26T05:59:37;95597.66;;;6.65
30001;BMP280;16845;48.670;9.000;2023-04-26T06:02:03;95590.63;;;6.92
30001;BMP280;16845;48.670;9.000;2023-04-26T06:04:30;95594.66;;;7.00
30001;BMP280;16845;48.670;9.000;2023-04-26T06:06:56;95601.34;;;6.98
30001;BMP280;16845;48.670;9.000;2023-04-26T06:09:23;95599.44;;;7.15
30001;BMP280;16845;48.670;9.000;2023-04-26T06:11:49;95610.13;;;7.23
30001;BMP280;16845;48.670;9.000;2023-04-26T06:14:17;95603.03;;;7.51
30001;BMP280;16845;48.670;9.000;2023-04-26T06:16:56;95600.75;;;7.37
30001;BMP280;16845;48.670;9.000;2023-04-26T06:19:23;95606.16;;;7.10
30001;BMP280;16845;48.670;9.000;2023-04-26T06:21:49;95602.59;;;7.78
30001;BMP280;16845;48.670;9.000;2023-04-26T06:24:16;95603.38;;;7.80
30001;BMP280;16845;48.670;9.000;2023-04-26T06:26:42;95607.38;;;7.90
30001;BMP280;16845;48.670;9.000;2023-04-26T06:29:09;95602.03;;;7.62
30001;BMP280;16845;48.670;9.000;2023-04-26T06:31:37;95607.69;;;7.70
30001;BMP280;16845;48.670;9.000;2023-04-26T06:34:03;95605.19;;;7.70
30001;BMP280;16845;48.670;9.000;2023-04-26T06:36:30;95612.31;;;7.91
30001;BMP280;16845;48.670;9.000;2023-04-26T06:38:56;95605.41;;;7.58
30001;BMP280;16845;48.670;9.000;2023-04-26T06:41:23;95612.53;;;7.29
30001;BMP280;16845;48.670;9.000;2023-04-26T06:43:49;95606.16;;;7.63
30001;BMP280;16845;48.670;9.000;2023-04-26T06:46:16;95602.25;;;7.96
30001;BMP280;16845;48.670;9.000;2023-04-26T06:48:44;95602.66;;;8.61
30001;BMP280;16845;48.670;9.000;2023-04-26T06:51:10;95599.88;;;9.13
30001;BMP280;16845;48.670;9.000;2023-04-26T06:53:37;95597.16;;;9.23
30001;BMP280;16845;48.670;9.000;2023-04-26T06:56:04;95595.31;;;9.31
30001;BMP280;16845;48.670;9.000;2023-04-26T06:58:30;95591.72;;;10.08
30001;BMP280;16845;48.670;9.000;2023-04-26T07:00:57;95588.28;;;10.42
30001;BMP280;16845;48.670;9.000;2023-04-26T07:03:23;95580.97;;;10.93
30001;BMP280;16845;48.670;9.000;2023-04-26T07:05:53;95578.19;;;11.02
30001;BMP280;16845;48.670;9.000;2023-04-26T07:08:20;95573.31;;;11.23
30001;BMP280;16845;48.670;9.000;2023-04-26T07:10:46;95571.09;;;11.40
30001;BMP280;16845;48.670;9.000;2023-04-26T07:13:13;95572.22;;;12.55
30001;BMP280;16845;48.670;9.000;2023-04-26T07:15:39;95557.59;;;12.19
30001;BMP280;16845;48.670;9.000;2023-04-26T07:18:06;95564.03;;;12.50
30001;BMP280;16845;48.670;9.000;2023-04-26T07:20:32;95567.03;;;12.12
30001;BMP280;16845;48.670;9.000;2023-04-26T07:23:00;95558.53;;;12.16
30001;BMP280;16845;48.670;9.000;2023-04-26T07:25:26;95551.16;;;12.12
30001;BMP280;16845;48.670;9.000;2023-04-26T07:27:53;95547.50;;;11.72
30001;BMP280;16845;48.670;9.000;2023-04-26T07:30:19;95548.50;;;11.40
30001;BMP280;16845;48.670;9.000;2023-04-26T07:32:46;95553.75;;;12.09
30001;BMP280;16845;48.670;9.000;2023-04-26T07:35:12;95555.94;;;12.18
30001;BMP280;16845;48.670;9.000;2023-04-26T07:37:39;95545.59;;;13.37
30001;BMP280;16845;48.670;9.000;2023-04-26T07:40:08;95547.97;;;13.62
30001;BMP280;16845;48.670;9.000;2023-04-26T07:42:35;95545.31;;;11.87
30001;BMP280;16845;48.670;9.000;2023-04-26T07:45:01;95543.44;;;12.16
30001;BMP280;16845;48.670;9.000;2023-04-26T07:47:28;95546.53;;;11.75
30001;BMP280;16845;48.670;9.000;2023-04-26T07:49:54;95545.47;;;12.30
30001;BMP280;16845;48.670;9.000;2023-04-26T07:52:21;95535.19;;;13.03
30001;BMP280;16845;48.670;9.000;2023-04-26T07:54:47;95535.31;;;13.43
30001;BMP280;16845;48.670;9.000;2023-04-26T07:57:15;95537.16;;;13.80
30001;BMP280;16845;48.670;9.000;2023-04-26T07:59:42;95537.16;;;13.38
30001;BMP280;16845;48.670;9.000;2023-04-26T08:02:08;95539.16;;;14.11
30001;BMP280;16845;48.670;9.000;2023-04-26T08:04:35;95534.47;;;14.98
30001;BMP280;16845;48.670;9.000;2023-04-26T08:07:02;95534.47;;;15.52
30001;BMP280;16845;48.670;9.000;2023-04-26T08:09:29;95542.34;;;15.63
30001;BMP280;16845;48.670;9.000;2023-04-26T08:11:55;95536.81;;;14.84
30001;BMP280;16845;48.670;9.000;2023-04-26T08:14:23;95541.31;;;15.67
30001;BMP280;16845;48.670;9.000;2023-04-26T08:16:50;95539.97;;;15.77
30001;BMP280;16845;48.670;9.000;2023-04-26T08:19:16;95536.84;;;15.55
30001;BMP280;16845;48.670;9.000;2023-04-26T08:21:43;95547.66;;;15.92
30001;BMP280;16845;48.670;9.000;2023-04-26T08:24:09;95539.00;;;16.63
30001;BMP280;16845;48.670;9.000;2023-04-26T08:26:35;95535.22;;;16.05
30001;BMP280;16845;48.670;9.000;2023-04-26T08:29:02;95543.72;;;14.99
30001;BMP280;16845;48.670;9.000;2023-04-26T08:31:30;95537.31;;;15.27
30001;BMP280;16845;48.670;9.000;2023-04-26T08:33:56;95539.69;;;14.58
30001;BMP280;16845;48.670;9.000;2023-04-26T08:36:23;95542.00;;;13.84
30001;BMP280;16845;48.670;9.000;2023-04-26T08:38:49;95541.56;;;14.14
30001;BMP280;16845;48.670;9.000;2023-04-26T08:41:20;95544.00;;;13.56
30001;BMP280;16845;48.670;9.000;2023-04-26T08:43:48;95551.56;;;13.96
30001;BMP280;16845;48.670;9.000;2023-04-26T08:46:18;95544.38;;;14.07
30001;BMP280;16845;48.670;9.000;2023-04-26T08:48:50;95545.03;;;13.72
30001;BMP280;16845;48.670;9.000;2023-04-26T08:51:20;95548.94;;;13.16
30001;BMP280;16845;48.670;9.000;2023-04-26T08:53:48;95551.00;;;12.16
30001;BMP280;16845;48.670;9.000;2023-04-26T08:56:16;95556.25;;;12.09
30001;BMP280;16845;48.670;9.000;2023-04-26T08:58:42;95556.88;;;11.67
30001;BMP280;16845;48.670;9.000;2023-04-26T09:01:13;95552.13;;;11.58
30001;BMP280;16845;48.670;9.000;2023-04-26T09:03:40;95561.72;;;11.73
30001;BMP280;16845;48.670;9.000;2023-04-26T09:06:08;95561.47;;;11.80
30001;BMP280;16845;48.670;9.000;2023-04-26T09:08:36;95554.09;;;11.48
30001;BMP280;16845;48.670;9.000;2023-04-26T09:11:03;95559.88;;;11.26
30001;BMP280;16845;48.670;9.000;2023-04-26T09:13:30;95557.41;;;11.76
30001;BMP280;16845;48.670;9.000;2023-04-26T09:15:56;95554.72;;;11.29
30001;BMP280;16845;48.670;9.000;2023-04-26T09:18:23;95560.09;;;12.19
30001;BMP280;16845;48.670;9.000;2023-04-26T09:21:11;95544.81;;;13.57
30001;BMP280;16845;48.670;9.000;2023-04-26T09:23:55;95539.19;;;14.68
30001;BMP280;16845;48.670;9.000;2023-04-26T09:26:22;95531.06;;;15.70
30001;BMP280;16845;48.670;9.000;2023-04-26T09:28:48;95524.88;;;15.23
30001;BMP280;16845;48.670;9.000;2023-04-26T09:31:36;95523.72;;;14.94
30001;BMP280;16845;48.670;9.000;2023-04-26T09:34:03;95518.22;;;16.41
30001;BMP280;16845;48.670;9.000;2023-04-26T09:36:30;95519.19;;;15.36
30001;BMP280;16845;48.670;9.000;2023-04-26T09:38:57;95517.44;;;15.20
30001;BMP280;16845;48.670;9.000;2023-04-26T09:41:23;95518.69;;;13.79
30001;BMP280;16845;48.670;9.000;2023-04-26T09:44:19;95524.59;;;13.58
30001;BMP280;16845;48.670;9.000;2023-04-26T09:46:56;95524.06;;;13.50
30001;BMP280;16845;48.670;9.000;2023-04-26T09:49:24;95525.88;;;12.82
30001;BMP280;16845;48.670;9.000;2023-04-26T09:52:00;95529.22;;;13.06
30001;BMP280;16845;48.670;9.000;2023-04-26T09:54:37;95532.53;;;12.62
30001;BMP280;16845;48.670;9.000;2023-04-26T09:57:04;95525.97;;;11.89
30001;BMP280;16845;48.670;9.000;2023-04-26T09:59:38;95533.84;;;12.03
30001;BMP280;16845;48.670;9.000;2023-04-26T10:02:15;95530.94;;;12.13
30001;BMP280;16845;48.670;9.000;2023-04-26T10:04:44;95531.75;;;12.15
30001;BMP280;16845;48.670;9.000;2023-04-26T10:07:13;95530.47;;;12.04
30001;BMP280;16845;48.670;9.000;2023-04-26T10:09:40;95528.06;;;12.01
30001;BMP280;16845;48.670;9.000;2023-04-26T10:12:08;95528.00;;;12.25
30001;BMP280;16845;48.670;9.000;2023-04-26T10:14:35;95528.16;;;11.98
30001;BMP280;16845;48.670;9.000;2023-04-26T10:17:02;95521.44;;;12.67
30001;BMP280;16845;48.670;9.000;2023-04-26T10:19:28;95517.91;;;12.94
30001;BMP280;16845;48.670;9.000;2023-04-26T10:21:58;95519.78;;;13.32
30001;BMP280;16845;48.670;9.000;2023-04-26T10:24:28;95507.22;;;12.66
30001;BMP280;16845;48.670;9.000;2023-04-26T10:26:55;95513.06;;;13.11
30001;BMP280;16845;48.670;9.000;2023-04-26T10:29:22;95516.53;;;12.64
30001;BMP280;16845;48.670;9.000;2023-04-26T10:32:05;95508.72;;;12.93
30001;BMP280;16845;48.670;9.000;2023-04-26T10:34:33;95514.44;;;12.75
30001;BMP280;16845;48.670;9.000;2023-04-26T10:37:09;95514.88;;;12.63
30001;BMP280;16845;48.670;9.000;2023-04-26T10:39:38;95510.97;;;13.42
30001;BMP280;16845;48.670;9.000;2023-04-26T10:42:23;95509.84;;;13.69
30001;BMP280;16845;48.670;9.000;2023-04-26T10:44:51;95511.91;;;14.00
30001;BMP280;16845;48.670;9.000;2023-04-26T10:47:23;95506.78;;;13.83
30001;BMP280;16845;48.670;9.000;2023-04-26T10:49:49;95506.56;;;14.27
30001;BMP280;16845;48.670;9.000;2023-04-26T10:52:17;95505.28;;;13.37
30001;BMP280;16845;48.670;9.000;2023-04-26T10:54:52;95503.72;;;13.55
30001;BMP280;16845;48.670;9.000;2023-04-26T10:57:19;95491.72;;;14.58
30001;BMP280;16845;48.670;9.000;2023-04-26T11:02:55;95485.47;;;15.02
30001;BMP280;16845;48.670;9.000;2023-04-26T11:05:32;95492.50;;;14.58
30001;BMP280;16845;48.670;9.000;2023-04-26T11:08:03;95487.88;;;16.39
30001;BMP280;16845;48.670;9.000;2023-04-26T11:10:31;95480.00;;;16.45
30001;BMP280;16845;48.670;9.000;2023-04-26T11:13:00;95480.78;;;14.39
30001;BMP280;16845;48.670;9.000;2023-04-26T11:15:26;95474.38;;;15.04
30001;BMP280;16845;48.670;9.000;2023-04-26T11:17:53;95475.56;;;15.50
30001;BMP280;16845;48.670;9.000;2023-04-26T11:20:20;95466.28;;;15.50
30001;BMP280;16845;48.670;9.000;2023-04-26T11:22:46;95472.59;;;14.34
30001;BMP280;16845;48.670;9.000;2023-04-26T11:25:13;95468.66;;;15.36
30001;BMP280;16845;48.670;9.000;2023-04-26T11:27:43;95459.97;;;16.24
30001;BMP280;16845;48.670;9.000;2023-04-26T11:30:10;95457.63;;;15.71
30001;BMP280;16845;48.670;9.000;2023-04-26T11:32:37;95445.28;;;14.79
30001;BMP280;16845;48.670;9.000;2023-04-26T11:35:04;95442.19;;;14.18
30001;BMP280;16845;48.670;9.000;2023-04-26T11:37:32;95446.88;;;13.68
30001;BMP280;16845;48.670;9.000;2023-04-26T11:39:59;95445.34;;;13.65
30001;BMP280;16845;48.670;9.000;2023-04-26T11:42:25;95445.94;;;13.70
30001;BMP280;16845;48.670;9.000;2023-04-26T11:44:55;95428.66;;;14.38
30001;BMP280;16845;48.670;9.000;2023-04-26T11:47:22;95426.94;;;14.92
30001;BMP280;16845;48.670;9.000;2023-04-26T11:49:49;95433.84;;;15.58
30001;BMP280;16845;48.670;9.000;2023-04-26T11:52:15;95422.63;;;18.63
30001;BMP280;16845;48.670;9.000;2023-04-26T11:54:42;95408.06;;;18.38
30001;BMP280;16845;48.670;9.000;2023-04-26T11:57:12;95418.50;;;18.88
30001;BMP280;16845;48.670;9.000;2023-04-26T11:59:42;95407.69;;;18.02
30001;BMP280;16845;48.670;9.000;2023-04-26T12:02:10;95402.72;;;19.48
30001;BMP280;16845;48.670;9.000;2023-04-26T12:04:37;95390.63;;;18.87
30001;BMP280;16845;48.670;9.000;2023-04-26T12:07:04;95398.41;;;18.57
30001;BMP280;16845;48.670;9.000;2023-04-26T12:09:31;95402.44;;;17.91
30001;BMP280;16845;48.670;9.000;2023-04-26T12:11:57;95411.69;;;15.63
30001;BMP280;16845;48.670;9.000;2023-04-26T12:14:29;95426.94;;;16.27
30001;BMP280;16845;48.670;9.000;2023-04-26T12:16:58;95418.00;;;17.12
30001;BMP280;16845;48.670;9.000;2023-04-26T12:19:26;95420.44;;;16.38
30001;BMP280;16845;48.670;9.000;2023-04-26T12:21:52;95411.31;;;16.96
30001;BMP280;16845;48.670;9.000;2023-04-26T12:24:21;95410.56;;;15.01
30001;BMP280;16845;48.670;9.000;2023-04-26T12:26:47;95410.19;;;15.76
30001;BMP280;16845;48.670;9.000;2023-04-26T12:29:14;95410.09;;;15.78
30001;BMP280;16845;48.670;9.000;2023-04-26T12:31:41;95416.97;;;15.91
30001;BMP280;16845;48.670;9.000;2023-04-26T12:34:07;95412.19;;;16.50
30001;BMP280;16845;48.670;9.000;2023-04-26T12:36:35;95415.47;;;17.12
30001;BMP280;16845;48.670;9.000;2023-04-26T12:39:02;95403.94;;;18.64
30001;BMP280;16845;48.670;9.000;2023-04-26T12:41:28;95395.66;;;17.48
30001;BMP280;16845;48.670;9.000;2023-04-26T12:43:55;95404.66;;;16.79
30001;BMP280;16845;48.670;9.000;2023-04-26T12:46:22;95396.81;;;16.22
30001;BMP280;16845;48.670;9.000;2023-04-26T12:48:48;95400.84;;;16.42
30001;BMP280;16845;48.670;9.000;2023-04-26T12:51:15;95387.97;;;15.98
30001;BMP280;16845;48.670;9.000;2023-04-26T12:53:42;95399.50;;;17.26
30001;BMP280;16845;48.670;9.000;2023-04-26T12:56:09;95382.75;;;18.77
30001;BMP280;16845;48.670;9.000;2023-04-26T12:58:35;95389.09;;;19.87
30001;BMP280;16845;48.670;9.000;2023-04-26T13:01:02;95388.94;;;18.73
30001;BMP280;16845;48.670;9.000;2023-04-26T13:03:29;95399.69;;;19.68
30001;BMP280;16845;48.670;9.000;2023-04-26T13:05:55;95392.47;;;21.55
30001;BMP280;16845;48.670;9.000;2023-04-26T13:08:22;95368.66;;;21.99
30001;BMP280;16845;48.670;9.000;2023-04-26T13:10:50;95367.66;;;22.46
30001;BMP280;16845;48.670;9.000;2023-04-26T13:13:16;95371.53;;;23.25
30001;BMP280;16845;48.670;9.000;2023-04-26T13:15:43;95371.00;;;20.04
30001;BMP280;16845;48.670;9.000;2023-04-26T13:18:10;95383.91;;;23.20
30001;BMP280;16845;48.670;9.000;2023-04-26T13:20:36;95372.44;;;23.76
30001;BMP280;16845;48.670;9.000;2023-04-26T13:23:03;95378.31;;;23.47
30001;BMP280;16845;48.670;9.000;2023-04-26T13:25:29;95378.59;;;21.59
30001;BMP280;16845;48.670;9.000;2023-04-26T13:27:57;95368.28;;;21.26
30001;BMP280;16845;48.670;9.000;2023-04-26T13:30:23;95368.13;;;20.93
30001;BMP280;16845;48.670;9.000;2023-04-26T13:32:50;95378.69;;;20.40
30001;BMP280;16845;48.670;9.000;2023-04-26T13:35:17;95377.25;;;21.08
30001;BMP280;16845;48.670;9.000;2023-04-26T13:37:43;95367.84;;;21.43
30001;BMP280;16845;48.670;9.000;2023-04-26T13:40:10;95376.69;;;19.82
30001;BMP280;16845;48.670;9.000;2023-04-26T13:42:37;95374.44;;;20.28
30001;BMP280;16845;48.670;9.000;2023-04-26T13:45:06;95374.59;;;20.37
30001;BMP280;16845;48.670;9.000;2023-04-26T13:47:33;95385.31;;;19.16
30001;BMP280;16845;48.670;9.000;2023-04-26T13:49:59;95373.75;;;20.49
30001;BMP280;16845;48.670;9.000;2023-04-26T13:52:26;95371.16;;;20.98
30001;BMP280;16845;48.670;9.000;2023-04-26T13:54:52;95378.00;;;18.59
30001;BMP280;16845;48.670;9.000;2023-04-26T13:57:19;95368.88;;;21.06
30001;BMP280;16845;48.670;9.000;2023-04-26T13:59:45;95365.31;;;21.88
30001;BMP280;16845;48.670;9.000;2023-04-26T14:02:13;95354.75;;;21.81
30001;BMP280;16845;48.670;9.000;2023-04-26T14:04:40;95362.81;;;19.49
30001;BMP280;16845;48.670;9.000;2023-04-26T14:07:08;95363.03;;;21.27
30001;BMP280;16845;48.670;9.000;2023-04-26T14:09:34;95356.31;;;21.26
30001;BMP280;16845;48.670;9.000;2023-04-26T14:12:01;95347.31;;;21.89
30001;BMP280;16845;48.670;9.000;2023-04-26T14:14:34;95364.22;;;21.00
30001;BMP280;16845;48.670;9.000;2023-04-26T14:17:00;95357.16;;;20.80
30001;BMP280;16845;48.670;9.000;2023-04-26T14:19:28;95359.13;;;21.68
30001;BMP280;16845;48.670;9.000;2023-04-26T14:21:55;95351.75;;;21.42
30001;BMP280;16845;48.670;9.000;2023-04-26T14:24:21;95357.25;;;19.69
30001;BMP280;16845;48.670;9.000;2023-04-26T14:26:48;95351.69;;;18.86
30001;BMP280;16845;48.670;9.000;2023-04-26T14:29:14;95348.75;;;18.11
30001;BMP280;16845;48.670;9.000;2023-04-26T14:31:40;95358.75;;;17.29
30001;BMP280;16845;48.670;9.000;2023-04-26T14:34:07;95354.91;;;16.63
30001;BMP280;16845;48.670;9.000;2023-04-26T14:36:35;95361.03;;;16.59
30001;BMP280;16845;48.670;9.000;2023-04-26T14:39:01;95369.31;;;16.63
30001;BMP280;16845;48.670;9.000;2023-04-26T14:41:28;95362.94;;;17.87
30001;BMP280;16845;48.670;9.000;2023-04-26T14:43:54;95354.06;;;20.15
30001;BMP280;16845;48.670;9.000;2023-04-26T14:46:21;95355.81;;;18.75
30001;BMP280;16845;48.670;9.000;2023-04-26T14:48:47;95350.41;;;17.98
30001;BMP280;16845;48.670;9.000;2023-04-26T14:51:13;95360.22;;;17.33
30001;BMP280;16845;48.670;9.000;2023-04-26T14:53:41;95367.84;;;16.43
30001;BMP280;16845;48.670;9.000;2023-04-26T14:56:08;95355.28;;;16.86
30001;BMP280;16845;48.670;9.000;2023-04-26T14:58:34;95358.50;;;15.97
30001;BMP280;16845;48.670;9.000;2023-04-26T15:01:01;95357.97;;;16.39
30001;BMP280;16845;48.670;9.000;2023-04-26T15:03:28;95369.50;;;17.48
30001;BMP280;16845;48.670;9.000;2023-04-26T15:05:54;95369.78;;;18.94
30001;BMP280;16845;48.670;9.000;2023-04-26T15:08:21;95357.94;;;19.71
30001;BMP280;16845;48.670;9.000;2023-04-26T15:10:49;95354.19;;;19.12
30001;BMP280;16845;48.670;9.000;2023-04-26T15:13:15;95362.63;;;16.91
30001;BMP280;16845;48.670;9.000;2023-04-26T15:15:42;95349.88;;;17.79
30001;BMP280;16845;48.670;9.000;2023-04-26T15:18:08;95368.38;;;16.33
30001;BMP280;16845;48.670;9.000;2023-04-26T15:20:37;95355.41;;;17.58
30001;BMP280;16845;48.670;9.000;2023-04-26T15:23:04;95351.09;;;18.14
30001;BMP280;16845;48.670;9.000;2023-04-26T15:25:33;95346.22;;;18.66
30001;BMP280;16845;48.670;9.000;2023-04-26T15:28:01;95349.69;;;18.10
30001;BMP280;16845;48.670;9.000;2023-04-26T15:30:27;95350.94;;;19.10
30001;BMP280;16845;48.670;9.000;2023-04-26T15:32:54;95343.00;;;20.40
30001;BMP280;16845;48.670;9.000;2023-04-26T15:35:20;95328.50;;;21.90
30001;BMP280;16845;48.670;9.000;2023-04-26T15:37:47;95334.56;;;21.10